sensor_id;sensor_type;location;lat;lon;timestamp;pressure;altitude;pressure_sealevel;temperature;humidity
25232;BME280;13176;51.140;6.290;2022-08-01T00:01:57;100960.38;;;24.21;71.92
25232;BME280;13176;51.140;6.290;2022-08-01T00:04:24;100924.81;;;23.94;72.25
25232;BME280;13176;51.140;6.290;2022-08-01T00:06:50;100937.25;;;24.07;72.22
25232;BME280;13176;51.140;6.290;2022-08-01T00:09:17;100938.84;;;24.10;72.21
25232;BME280;13176;51.140;6.290;2022-08-01T00:11:49;100925.72;;;24.07;72.24
25232;BME280;13176;51.140;6.290;2022-08-01T00:14:25;100951.41;;;24.22;72.61
25232;BME280;13176;51.140;6.290;2022-08-01T00:16:58;100906.16;;;23.94;71.87
25232;BME280;13176;51.140;6.290;2022-08-01T00:19:32;100958.50;;;24.35;71.84
25232;BME280;13176;51.140;6.290;2022-08-01T00:21:59;100919.88;;;23.88;71.69
25232;BME280;13176;51.140;6.290;2022-08-01T00:24:25;100870.56;;;23.81;72.05
25232;BME280;13176;51.140;6.290;2022-08-01T00:26:51;100938.47;;;24.16;71.66
25232;BME280;13176;51.140;6.290;2022-08-01T00:29:18;100901.53;;;23.83;71.97
25232;BME280;13176;51.140;6.290;2022-08-01T00:32:04;100932.56;;;23.84;72.47
25232;BME280;13176;51.140;6.290;2022-08-01T00:34:31;100923.06;;;23.80;72.94
25232;BME280;13176;51.140;6.290;2022-08-01T00:36:58;100950.78;;;24.04;72.27
25232;BME280;13176;51.140;6.290;2022-08-01T00:39:24;100938.75;;;23.85;73.08
25232;BME280;13176;51.140;6.290;2022-08-01T00:41:51;100907.28;;;23.76;72.54
25232;BME280;13176;51.140;6.290;2022-08-01T00:44:26;100948.44;;;24.00;72.19
25232;BME280;13176;51.140;6.290;2022-08-01T00:46:52;100918.25;;;23.85;71.89
25232;BME280;13176;51.140;6.290;2022-08-01T00:49:19;100937.00;;;23.98;72.40
25232;BME280;13176;51.140;6.290;2022-08-01T00:51:45;100951.44;;;23.81;73.05
25232;BME280;13176;51.140;6.290;2022-08-01T00:54:12;100913.03;;;23.84;72.83
25232;BME280;13176;51.140;6.290;2022-08-01T00:56:42;100952.81;;;24.01;72.83
25232;BME280;13176;51.140;6.290;2022-08-01T00:59:09;100936.25;;;23.96;72.81
25232;BME280;13176;51.140;6.290;2022-08-01T01:01:39;100945.97;;;23.97;72.77
25232;BME280;13176;51.140;6.290;2022-08-01T01:04:12;100910.94;;;23.89;72.44
25232;BME280;13176;51.140;6.290;2022-08-01T01:07:09;100907.31;;;23.90;72.17
25232;BME280;13176;51.140;6.290;2022-08-01T01:15:10;100952.00;;;24.13;72.57
25232;BME280;13176;51.140;6.290;2022-08-01T01:18:03;100873.25;;;23.67;72.17
25232;BME280;13176;51.140;6.290;2022-08-01T01:20:44;100937.41;;;23.92;72.96
25232;BME280;13176;51.140;6.290;2022-08-01T01:23:25;100928.25;;;23.96;72.67
25232;BME280;13176;51.140;6.290;2022-08-01T01:31:25;100935.22;;;23.84;73.26
25232;BME280;13176;51.140;6.290;2022-08-01T01:33:53;100941.84;;;23.91;73.14
25232;BME280;13176;51.140;6.290;2022-08-01T01:36:21;100909.22;;;23.88;72.42
25232;BME280;13176;51.140;6.290;2022-08-01T01:38:50;100943.84;;;24.02;72.85
25232;BME280;13176;51.140;6.290;2022-08-01T01:41:18;100942.72;;;23.92;73.10
25232;BME280;13176;51.140;6.290;2022-08-01T01:43:46;100853.69;;;23.40;72.88
25232;BME280;13176;51.140;6.290;2022-08-01T01:46:16;100922.94;;;23.82;72.78
25232;BME280;13176;51.140;6.290;2022-08-01T01:48:44;100916.16;;;23.76;72.80
25232;BME280;13176;51.140;6.290;2022-08-01T01:51:13;100923.69;;;23.84;73.04
25232;BME280;13176;51.140;6.290;2022-08-01T01:53:41;100933.84;;;23.91;72.37
25232;BME280;13176;51.140;6.290;2022-08-01T01:56:09;100954.09;;;24.08;72.47
25232;BME280;13176;51.140;6.290;2022-08-01T01:58:37;100906.09;;;23.81;72.36
25232;BME280;13176;51.140;6.290;2022-08-01T02:01:06;100942.97;;;24.01;72.66
25232;BME280;13176;51.140;6.290;2022-08-01T02:03:41;100917.97;;;23.90;72.46
25232;BME280;13176;51.140;6.290;2022-08-01T02:06:09;100927.66;;;23.77;73.21
25232;BME280;13176;51.140;6.290;2022-08-01T02:08:36;100926.47;;;23.82;73.01
25232;BME280;13176;51.140;6.290;2022-08-01T02:11:04;100934.63;;;23.93;72.89
25232;BME280;13176;51.140;6.290;2022-08-01T02:13:53;100882.03;;;23.55;73.36
25232;BME280;13176;51.140;6.290;2022-08-01T02:16:25;100939.88;;;23.95;72.85
25232;BME280;13176;51.140;6.290;2022-08-01T02:18:52;100917.97;;;23.90;72.98
25232;BME280;13176;51.140;6.290;2022-08-01T02:21:27;100880.88;;;23.59;72.95
25232;BME280;13176;51.140;6.290;2022-08-01T02:23:55;100893.81;;;23.65;73.06
25232;BME280;13176;51.140;6.290;2022-08-01T02:26:30;100913.69;;;23.73;72.95
25232;BME280;13176;51.140;6.290;2022-08-01T02:29:01;100914.09;;;23.81;72.88
25232;BME280;13176;51.140;6.290;2022-08-01T02:31:30;100942.34;;;23.98;72.92
25232;BME280;13176;51.140;6.290;2022-08-01T02:34:04;100888.50;;;23.65;73.18
25232;BME280;13176;51.140;6.290;2022-08-01T02:36:36;100892.19;;;23.62;73.03
25232;BME280;13176;51.140;6.290;2022-08-01T02:39:08;100932.91;;;23.92;73.36
25232;BME280;13176;51.140;6.290;2022-08-01T02:41:39;100901.00;;;23.77;73.23
25232;BME280;13176;51.140;6.290;2022-08-01T02:44:07;100907.50;;;23.87;72.99
25232;BME280;13176;51.140;6.290;2022-08-01T02:46:50;100918.16;;;23.87;73.64
25232;BME280;13176;51.140;6.290;2022-08-01T02:49:18;100895.88;;;23.74;73.68
25232;BME280;13176;51.140;6.290;2022-08-01T02:51:48;100897.25;;;23.67;74.30
25232;BME280;13176;51.140;6.290;2022-08-01T02:54:17;100933.78;;;23.93;74.41
25232;BME280;13176;51.140;6.290;2022-08-01T02:56:46;100918.97;;;23.61;75.11
25232;BME280;13176;51.140;6.290;2022-08-01T02:59:15;100923.78;;;23.68;74.91
25232;BME280;13176;51.140;6.290;2022-08-01T03:01:47;100937.38;;;23.78;75.08
25232;BME280;13176;51.140;6.290;2022-08-01T03:04:16;100918.00;;;23.62;75.51
25232;BME280;13176;51.140;6.290;2022-08-01T03:06:44;100901.72;;;23.52;75.41
25232;BME280;13176;51.140;6.290;2022-08-01T03:09:11;100919.72;;;23.63;75.40
25232;BME280;13176;51.140;6.290;2022-08-01T03:11:40;100922.00;;;23.55;75.80
25232;BME280;13176;51.140;6.290;2022-08-01T03:14:09;100926.09;;;23.60;75.16
25232;BME280;13176;51.140;6.290;2022-08-01T03:16:38;100931.69;;;23.70;75.37
25232;BME280;13176;51.140;6.290;2022-08-01T03:19:08;100917.63;;;23.54;75.74
25232;BME280;13176;51.140;6.290;2022-08-01T03:21:37;100908.31;;;23.47;75.44
25232;BME280;13176;51.140;6.290;2022-08-01T03:24:06;100929.50;;;23.62;75.41
25232;BME280;13176;51.140;6.290;2022-08-01T03:26:36;100947.91;;;23.67;75.70
25232;BME280;13176;51.140;6.290;2022-08-01T03:29:11;100948.34;;;23.73;75.39
25232;BME280;13176;51.140;6.290;2022-08-01T03:31:39;100942.75;;;23.64;75.86
25232;BME280;13176;51.140;6.290;2022-08-01T03:34:09;100910.41;;;23.42;75.80
25232;BME280;13176;51.140;6.290;2022-08-01T03:37:05;100948.72;;;23.67;75.94
25232;BME280;13176;51.140;6.290;2022-08-01T03:39:33;100934.66;;;23.65;75.50
25232;BME280;13176;51.140;6.290;2022-08-01T03:42:12;100944.06;;;23.71;75.50
25232;BME280;13176;51.140;6.290;2022-08-01T03:44:40;100929.97;;;23.69;75.36
25232;BME280;13176;51.140;6.290;2022-08-01T03:47:08;100936.25;;;23.68;75.68
25232;BME280;13176;51.140;6.290;2022-08-01T03:49:40;100914.59;;;23.60;75.09
25232;BME280;13176;51.140;6.290;2022-08-01T03:52:07;100927.59;;;23.64;75.09
25232;BME280;13176;51.140;6.290;2022-08-01T03:54:41;100949.00;;;23.77;75.51
25232;BME280;13176;51.140;6.290;2022-08-01T03:57:09;100947.13;;;23.79;75.47
25232;BME280;13176;51.140;6.290;2022-08-01T03:59:58;100941.50;;;23.69;75.86
25232;BME280;13176;51.140;6.290;2022-08-01T04:02:26;100946.53;;;23.74;75.72
25232;BME280;13176;51.140;6.290;2022-08-01T04:04:54;100951.09;;;23.72;75.84
25232;BME280;13176;51.140;6.290;2022-08-01T04:07:26;100938.19;;;23.52;76.32
25232;BME280;13176;51.140;6.290;2022-08-01T04:09:53;100949.31;;;23.58;76.40
25232;BME280;13176;51.140;6.290;2022-08-01T04:12:20;100953.00;;;23.70;76.01
25232;BME280;13176;51.140;6.290;2022-08-01T04:14:47;100954.72;;;23.71;75.99
25232;BME280;13176;51.140;6.290;2022-08-01T04:17:15;100862.28;;;23.17;76.18
25232;BME280;13176;51.140;6.290;2022-08-01T04:19:43;100937.00;;;23.70;76.02
25232;BME280;13176;51.140;6.290;2022-08-01T04:22:11;100956.25;;;23.75;76.20
25232;BME280;13176;51.140;6.290;2022-08-01T04:24:39;100932.28;;;23.61;75.93
25232;BME280;13176;51.140;6.290;2022-08-01T04:27:11;100911.09;;;23.45;76.28
25232;BME280;13176;51.140;6.290;2022-08-01T04:29:41;100882.41;;;23.35;76.20
25232;BME280;13176;51.140;6.290;2022-08-01T04:32:11;100952.25;;;23.68;76.39
25232;BME280;13176;51.140;6.290;2022-08-01T04:34:40;100919.53;;;23.52;75.95
25232;BME280;13176;51.140;6.290;2022-08-01T04:37:09;100946.66;;;23.58;75.98
25232;BME280;13176;51.140;6.290;2022-08-01T04:39:39;100962.44;;;23.75;76.17
25232;BME280;13176;51.140;6.290;2022-08-01T04:42:17;100941.44;;;23.57;76.28
25232;BME280;13176;51.140;6.290;2022-08-01T04:44:51;100973.94;;;23.76;76.35
25232;BME280;13176;51.140;6.290;2022-08-01T04:47:18;100968.34;;;23.66;76.34
25232;BME280;13176;51.140;6.290;2022-08-01T04:49:45;100875.38;;;23.06;76.44
25232;BME280;13176;51.140;6.290;2022-08-01T04:52:14;100971.38;;;23.74;76.32
25232;BME280;13176;51.140;6.290;2022-08-01T04:54:47;100964.91;;;23.64;75.96
25232;BME280;13176;51.140;6.290;2022-08-01T04:57:13;100965.56;;;23.68;76.11
25232;BME280;13176;51.140;6.290;2022-08-01T04:59:42;100984.44;;;23.79;76.10
25232;BME280;13176;51.140;6.290;2022-08-01T05:04:37;100961.50;;;23.62;76.27
25232;BME280;13176;51.140;6.290;2022-08-01T05:07:04;100978.53;;;23.60;76.67
25232;BME280;13176;51.140;6.290;2022-08-01T05:09:31;100948.84;;;23.52;76.68
25232;BME280;13176;51.140;6.290;2022-08-01T05:11:59;100992.72;;;23.74;76.69
25232;BME280;13176;51.140;6.290;2022-08-01T05:14:27;100990.81;;;23.76;76.67
25232;BME280;13176;51.140;6.290;2022-08-01T05:16:54;100968.25;;;23.54;76.73
25232;BME280;13176;51.140;6.290;2022-08-01T05:19:23;100972.53;;;23.56;76.79
25232;BME280;13176;51.140;6.290;2022-08-01T05:21:50;100969.59;;;23.61;76.77
25232;BME280;13176;51.140;6.290;2022-08-01T05:24:17;100962.16;;;23.52;76.79
25232;BME280;13176;51.140;6.290;2022-08-01T05:26:43;100975.88;;;23.60;76.82
25232;BME280;13176;51.140;6.290;2022-08-01T05:29:09;100981.19;;;23.74;76.53
25232;BME280;13176;51.140;6.290;2022-08-01T05:31:36;100965.03;;;23.63;76.41
25232;BME280;13176;51.140;6.290;2022-08-01T05:34:02;100957.03;;;23.63;76.05
25232;BME280;13176;51.140;6.290;2022-08-01T05:36:29;100987.88;;;23.81;76.44
25232;BME280;13176;51.140;6.290;2022-08-01T05:38:55;100971.28;;;23.76;76.20
25232;BME280;13176;51.140;6.290;2022-08-01T05:41:22;100994.16;;;23.80;76.21
25232;BME280;13176;51.140;6.290;2022-08-01T05:43:48;100991.13;;;23.86;76.31
25232;BME280;13176;51.140;6.290;2022-08-01T05:46:15;100988.25;;;23.89;76.14
25232;BME280;13176;51.140;6.290;2022-08-01T05:48:41;100968.84;;;23.87;75.64
25232;BME280;13176;51.140;6.290;2022-08-01T05:51:08;100984.91;;;23.99;75.82
25232;BME280;13176;51.140;6.290;2022-08-01T05:53:34;100975.13;;;23.86;75.58
25232;BME280;13176;51.140;6.290;2022-08-01T05:56:01;100986.25;;;23.92;75.05
25232;BME280;13176;51.140;6.290;2022-08-01T05:58:28;101012.41;;;24.14;75.08
25232;BME280;13176;51.140;6.290;2022-08-01T06:00:54;100963.13;;;23.79;75.17
25232;BME280;13176;51.140;6.290;2022-08-01T06:03:21;100973.97;;;23.90;74.82
25232;BME280;13176;51.140;6.290;2022-08-01T06:05:47;100991.09;;;24.00;74.59
25232;BME280;13176;51.140;6.290;2022-08-01T06:08:14;100974.16;;;23.87;74.55
25232;BME280;13176;51.140;6.290;2022-08-01T06:10:40;101001.66;;;24.01;75.29
25232;BME280;13176;51.140;6.290;2022-08-01T06:13:06;100990.53;;;23.95;75.00
25232;BME280;13176;51.140;6.290;2022-08-01T06:15:33;100959.97;;;23.86;74.69
25232;BME280;13176;51.140;6.290;2022-08-01T06:18:00;100956.44;;;23.86;74.46
25232;BME280;13176;51.140;6.290;2022-08-01T06:20:26;100992.25;;;23.96;74.43
25232;BME280;13176;51.140;6.290;2022-08-01T06:22:53;100970.84;;;23.83;74.33
25232;BME280;13176;51.140;6.290;2022-08-01T06:25:21;100972.03;;;23.78;74.25
25232;BME280;13176;51.140;6.290;2022-08-01T06:27:48;101009.34;;;24.06;73.85
25232;BME280;13176;51.140;6.290;2022-08-01T06:30:15;100996.72;;;23.95;73.90
25232;BME280;13176;51.140;6.290;2022-08-01T06:32:42;101011.25;;;24.04;73.88
25232;BME280;13176;51.140;6.290;2022-08-01T06:35:08;100905.44;;;23.50;73.53
25232;BME280;13176;51.140;6.290;2022-08-01T06:37:35;101000.22;;;24.10;73.57
25232;BME280;13176;51.140;6.290;2022-08-01T06:42:29;100989.03;;;23.91;73.21
25232;BME280;13176;51.140;6.290;2022-08-01T06:44:57;101013.16;;;24.16;73.26
25232;BME280;13176;51.140;6.290;2022-08-01T06:47:24;100991.44;;;24.08;72.55
25232;BME280;13176;51.140;6.290;2022-08-01T06:49:50;101006.66;;;24.20;72.04
25232;BME280;13176;51.140;6.290;2022-08-01T06:52:17;100983.00;;;24.01;71.63
25232;BME280;13176;51.140;6.290;2022-08-01T06:54:43;100945.03;;;23.84;70.96
25232;BME280;13176;51.140;6.290;2022-08-01T06:57:10;101010.47;;;24.29;70.55
25232;BME280;13176;51.140;6.290;2022-08-01T06:59:36;101025.22;;;24.49;70.30
25232;BME280;13176;51.140;6.290;2022-08-01T07:02:02;100996.72;;;24.35;69.47
25232;BME280;13176;51.140;6.290;2022-08-01T07:04:30;101001.06;;;24.50;69.28
25232;BME280;13176;51.140;6.290;2022-08-01T07:06:56;101018.19;;;24.60;69.12
25232;BME280;13176;51.140;6.290;2022-08-01T07:09:23;100975.91;;;24.40;69.23
25232;BME280;13176;51.140;6.290;2022-08-01T07:11:50;100981.03;;;24.43;69.14
25232;BME280;13176;51.140;6.290;2022-08-01T07:14:19;100992.88;;;24.53;69.36
25232;BME280;13176;51.140;6.290;2022-08-01T07:16:45;100985.25;;;24.47;69.08
25232;BME280;13176;51.140;6.290;2022-08-01T07:19:12;100989.59;;;24.62;68.84
25232;BME280;13176;51.140;6.290;2022-08-01T07:21:39;100951.09;;;24.52;68.88
25232;BME280;13176;51.140;6.290;2022-08-01T07:24:08;100985.22;;;24.61;67.17
25232;BME280;13176;51.140;6.290;2022-08-01T07:26:47;100987.16;;;24.72;67.23
25232;BME280;13176;51.140;6.290;2022-08-01T07:29:25;101003.75;;;24.89;66.42
25232;BME280;13176;51.140;6.290;2022-08-01T07:31:54;101024.09;;;25.04;66.83
25232;BME280;13176;51.140;6.290;2022-08-01T07:34:22;101028.34;;;24.94;66.76
25232;BME280;13176;51.140;6.290;2022-08-01T07:36:49;101028.88;;;24.99;67.07
25232;BME280;13176;51.140;6.290;2022-08-01T07:39:16;101008.94;;;24.78;67.12
25232;BME280;13176;51.140;6.290;2022-08-01T07:41:42;100969.13;;;24.75;67.03
25232;BME280;13176;51.140;6.290;2022-08-01T07:44:30;101011.16;;;24.98;66.83
25232;BME280;13176;51.140;6.290;2022-08-01T07:46:57;101016.84;;;25.06;67.01
25232;BME280;13176;51.140;6.290;2022-08-01T07:49:23;100963.25;;;24.70;66.91
25232;BME280;13176;51.140;6.290;2022-08-01T07:51:50;100953.31;;;24.72;67.29
25232;BME280;13176;51.140;6.290;2022-08-01T07:54:29;100947.41;;;24.67;66.87
25232;BME280;13176;51.140;6.290;2022-08-01T07:56:59;100968.03;;;24.65;66.51
25232;BME280;13176;51.140;6.290;2022-08-01T07:59:26;100968.84;;;24.53;67.32
25232;BME280;13176;51.140;6.290;2022-08-01T08:01:52;101030.75;;;25.11;66.82
25232;BME280;13176;51.140;6.290;2022-08-01T08:04:19;101035.25;;;25.23;66.31
25232;BME280;13176;51.140;6.290;2022-08-01T08:06:45;101019.84;;;25.14;65.77
25232;BME280;13176;51.140;6.290;2022-08-01T08:09:14;101032.50;;;25.25;65.40
25232;BME280;13176;51.140;6.290;2022-08-01T08:11:42;101032.59;;;25.36;65.45
25232;BME280;13176;51.140;6.290;2022-08-01T08:14:13;101018.47;;;25.21;64.57
25232;BME280;13176;51.140;6.290;2022-08-01T08:16:39;100986.31;;;25.23;64.38
25232;BME280;13176;51.140;6.290;2022-08-01T08:19:06;101011.75;;;25.41;64.66
25232;BME280;13176;51.140;6.290;2022-08-01T08:21:32;101023.72;;;25.35;64.09
25232;BME280;13176;51.140;6.290;2022-08-01T08:23:59;101041.34;;;25.25;64.73
25232;BME280;13176;51.140;6.290;2022-08-01T08:26:45;101042.03;;;25.02;65.55
25232;BME280;13176;51.140;6.290;2022-08-01T08:29:17;101055.50;;;25.13;65.28
25232;BME280;13176;51.140;6.290;2022-08-01T08:31:44;101039.81;;;25.09;65.38
25232;BME280;13176;51.140;6.290;2022-08-01T08:34:18;101049.81;;;25.32;65.37
25232;BME280;13176;51.140;6.290;2022-08-01T08:36:44;100972.09;;;24.71;65.19
25232;BME280;13176;51.140;6.290;2022-08-01T08:39:13;101042.09;;;25.15;65.13
25232;BME280;13176;51.140;6.290;2022-08-01T08:41:43;101021.97;;;25.09;65.36
25232;BME280;13176;51.140;6.290;2022-08-01T08:44:14;101030.88;;;25.22;64.19
25232;BME280;13176;51.140;6.290;2022-08-01T08:46:44;101043.19;;;25.37;63.81
25232;BME280;13176;51.140;6.290;2022-08-01T08:49:15;101055.41;;;25.66;64.48
25232;BME280;13176;51.140;6.290;2022-08-01T08:51:43;101010.03;;;25.27;62.36
25232;BME280;13176;51.140;6.290;2022-08-01T08:54:11;101063.97;;;25.58;62.62
25232;BME280;13176;51.140;6.290;2022-08-01T08:56:40;101005.56;;;25.52;62.51
25232;BME280;13176;51.140;6.290;2022-08-01T08:59:07;101016.03;;;25.80;62.25
25232;BME280;13176;51.140;6.290;2022-08-01T09:01:34;100930.28;;;25.21;60.67
25232;BME280;13176;51.140;6.290;2022-08-01T09:04:04;101036.97;;;25.99;60.51
25232;BME280;13176;51.140;6.290;2022-08-01T09:06:32;101031.19;;;26.05;59.87
25232;BME280;13176;51.140;6.290;2022-08-01T09:08:59;101061.97;;;26.23;59.30
25232;BME280;13176;51.140;6.290;2022-08-01T09:11:26;101040.72;;;26.09;59.31
25232;BME280;13176;51.140;6.290;2022-08-01T09:14:11;101053.44;;;26.18;59.48
25232;BME280;13176;51.140;6.290;2022-08-01T09:16:43;101026.50;;;26.32;58.77
25232;BME280;13176;51.140;6.290;2022-08-01T09:19:17;101057.72;;;26.20;57.98
25232;BME280;13176;51.140;6.290;2022-08-01T09:22:09;101082.06;;;26.41;58.05
25232;BME280;13176;51.140;6.290;2022-08-01T09:24:36;101016.72;;;26.20;56.99
25232;BME280;13176;51.140;6.290;2022-08-01T09:27:18;101045.22;;;26.44;57.58
25232;BME280;13176;51.140;6.290;2022-08-01T09:29:48;101031.63;;;26.70;57.11
25232;BME280;13176;51.140;6.290;2022-08-01T09:32:29;101048.34;;;26.74;55.63
25232;BME280;13176;51.140;6.290;2022-08-01T09:35:33;101059.53;;;27.02;55.00
25232;BME280;13176;51.140;6.290;2022-08-01T09:38:20;101039.50;;;26.84;55.30
25232;BME280;13176;51.140;6.290;2022-08-01T09:40:52;101052.69;;;26.98;54.06
25232;BME280;13176;51.140;6.290;2022-08-01T09:43:26;101076.28;;;27.06;52.84
25232;BME280;13176;51.140;6.290;2022-08-01T09:45:54;101037.47;;;26.99;53.25
25232;BME280;13176;51.140;6.290;2022-08-01T09:48:23;101068.44;;;27.26;53.22
25232;BME280;13176;51.140;6.290;2022-08-01T09:50:54;101005.72;;;27.05;53.23
25232;BME280;13176;51.140;6.290;2022-08-01T09:53:44;101054.59;;;27.54;52.79
25232;BME280;13176;51.140;6.290;2022-08-01T09:56:17;100957.91;;;26.99;51.21
25232;BME280;13176;51.140;6.290;2022-08-01T09:58:57;101065.53;;;27.40;49.22
25232;BME280;13176;51.140;6.290;2022-08-01T10:01:28;101049.44;;;27.40;49.98
25232;BME280;13176;51.140;6.290;2022-08-01T10:04:08;101033.81;;;27.34;49.69
25232;BME280;13176;51.140;6.290;2022-08-01T10:06:38;101016.75;;;27.24;51.23
25232;BME280;13176;51.140;6.290;2022-08-01T10:09:07;101023.34;;;27.31;51.73
25232;BME280;13176;51.140;6.290;2022-08-01T10:11:34;100960.31;;;26.80;51.47
25232;BME280;13176;51.140;6.290;2022-08-01T10:14:05;100985.44;;;26.90;52.34
25232;BME280;13176;51.140;6.290;2022-08-01T10:16:34;101047.00;;;27.26;52.70
25232;BME280;13176;51.140;6.290;2022-08-01T10:19:06;100993.50;;;27.01;51.79
25232;BME280;13176;51.140;6.290;2022-08-01T10:21:41;101062.75;;;27.53;51.04
25232;BME280;13176;51.140;6.290;2022-08-01T10:24:26;101005.50;;;27.08;50.90
25232;BME280;13176;51.140;6.290;2022-08-01T10:27:03;101040.38;;;27.19;50.78
25232;BME280;13176;51.140;6.290;2022-08-01T10:29:43;101070.38;;;27.24;51.95
25232;BME280;13176;51.140;6.290;2022-08-01T10:32:33;101002.97;;;26.83;51.26
25232;BME280;13176;51.140;6.290;2022-08-01T10:35:03;101069.69;;;27.44;51.54
25232;BME280;13176;51.140;6.290;2022-08-01T10:37:33;100998.09;;;27.23;51.38
25232;BME280;13176;51.140;6.290;2022-08-01T10:40:17;101050.03;;;27.78;50.53
25232;BME280;13176;51.140;6.290;2022-08-01T10:42:56;101080.19;;;28.14;50.14
25232;BME280;13176;51.140;6.290;2022-08-01T10:45:23;101063.44;;;28.11;48.03
25232;BME280;13176;51.140;6.290;2022-08-01T10:48:14;101065.88;;;28.14;46.20
25232;BME280;13176;51.140;6.290;2022-08-01T10:50:48;101078.59;;;28.34;47.70
25232;BME280;13176;51.140;6.290;2022-08-01T10:53:18;101079.19;;;28.26;47.21
25232;BME280;13176;51.140;6.290;2022-08-01T10:58:27;101046.88;;;27.95;47.24
25232;BME280;13176;51.140;6.290;2022-08-01T11:03:42;101051.97;;;28.20;45.30
25232;BME280;13176;51.140;6.290;2022-08-01T11:06:25;101063.91;;;28.49;44.66
25232;BME280;13176;51.140;6.290;2022-08-01T11:08:56;101051.50;;;28.26;44.32
25232;BME280;13176;51.140;6.290;2022-08-01T11:11:28;101040.50;;;28.18;44.78
25232;BME280;13176;51.140;6.290;2022-08-01T11:14:04;100944.25;;;27.59;44.38
25232;BME280;13176;51.140;6.290;2022-08-01T11:16:42;101024.06;;;27.79;44.14
25232;BME280;13176;51.140;6.290;2022-08-01T11:19:08;101057.34;;;28.20;45.06
25232;BME280;13176;51.140;6.290;2022-08-01T11:32:52;101049.63;;;29.22;41.70
25232;BME280;13176;51.140;6.290;2022-08-01T11:35:36;101046.91;;;29.02;41.99
25232;BME280;13176;51.140;6.290;2022-08-01T11:38:23;101007.28;;;28.72;41.61
25232;BME280;13176;51.140;6.290;2022-08-01T11:41:12;101054.56;;;28.75;41.69
25232;BME280;13176;51.140;6.290;2022-08-01T11:52:06;101031.31;;;28.42;40.88
25232;BME280;13176;51.140;6.290;2022-08-01T11:54:47;101003.91;;;28.28;41.61
25232;BME280;13176;51.140;6.290;2022-08-01T11:57:24;101028.56;;;28.33;41.80
25232;BME280;13176;51.140;6.290;2022-08-01T12:00:03;101031.91;;;28.46;41.99
25232;BME280;13176;51.140;6.290;2022-08-01T12:02:34;101032.78;;;28.78;41.69
25232;BME280;13176;51.140;6.290;2022-08-01T12:07:31;101046.41;;;29.28;41.25
25232;BME280;13176;51.140;6.290;2022-08-01T12:10:01;101037.91;;;29.43;41.24
25232;BME280;13176;51.140;6.290;2022-08-01T12:12:29;101035.31;;;29.62;39.89
25232;BME280;13176;51.140;6.290;2022-08-01T12:15:07;101024.22;;;29.76;39.83
25232;BME280;13176;51.140;6.290;2022-08-01T12:17:37;101041.41;;;29.64;39.73
25232;BME280;13176;51.140;6.290;2022-08-01T12:20:07;101052.34;;;29.42;40.15
25232;BME280;13176;51.140;6.290;2022-08-01T12:22:34;101040.50;;;29.54;40.28
25232;BME280;13176;51.140;6.290;2022-08-01T12:25:12;101021.69;;;29.84;40.13
25232;BME280;13176;51.140;6.290;2022-08-01T12:27:41;101040.56;;;30.14;39.38
25232;BME280;13176;51.140;6.290;2022-08-01T12:30:21;101010.22;;;30.12;39.39
25232;BME280;13176;51.140;6.290;2022-08-01T12:32:52;101043.81;;;30.57;38.72
25232;BME280;13176;51.140;6.290;2022-08-01T12:35:27;101042.63;;;30.50;38.19
25232;BME280;13176;51.140;6.290;2022-08-01T12:38:05;101014.19;;;30.27;35.51
25232;BME280;13176;51.140;6.290;2022-08-01T12:40:34;101024.97;;;30.27;35.77
25232;BME280;13176;51.140;6.290;2022-08-01T12:43:04;101028.06;;;30.13;36.18
25232;BME280;13176;51.140;6.290;2022-08-01T12:45:34;101024.13;;;30.27;36.37
25232;BME280;13176;51.140;6.290;2022-08-01T12:48:02;100999.53;;;30.01;36.72
25232;BME280;13176;51.140;6.290;2022-08-01T12:50:39;101007.03;;;29.98;36.66
25232;BME280;13176;51.140;6.290;2022-08-01T12:53:08;101033.56;;;30.02;36.73
25232;BME280;13176;51.140;6.290;2022-08-01T12:55:54;101009.00;;;29.66;37.19
25232;BME280;13176;51.140;6.290;2022-08-01T12:58:31;101038.72;;;29.94;37.20
25232;BME280;13176;51.140;6.290;2022-08-01T13:01:05;101024.63;;;29.51;37.30
25232;BME280;13176;51.140;6.290;2022-08-01T13:03:32;100997.66;;;29.42;37.53
25232;BME280;13176;51.140;6.290;2022-08-01T13:05:59;101010.00;;;29.65;36.89
25232;BME280;13176;51.140;6.290;2022-08-01T13:08:30;101036.13;;;30.04;36.78
25232;BME280;13176;51.140;6.290;2022-08-01T13:11:12;101027.03;;;30.05;37.95
25232;BME280;13176;51.140;6.290;2022-08-01T13:13:47;101011.44;;;29.99;38.78
25232;BME280;13176;51.140;6.290;2022-08-01T13:16:21;101043.06;;;30.06;38.49
25232;BME280;13176;51.140;6.290;2022-08-01T13:19:04;101013.75;;;29.83;39.02
25232;BME280;13176;51.140;6.290;2022-08-01T13:21:31;101032.22;;;29.97;40.13
25232;BME280;13176;51.140;6.290;2022-08-01T13:24:23;101009.78;;;29.87;40.23
25232;BME280;13176;51.140;6.290;2022-08-01T13:26:52;100994.38;;;29.59;41.00
25232;BME280;13176;51.140;6.290;2022-08-01T13:29:35;101045.88;;;29.54;40.66
25232;BME280;13176;51.140;6.290;2022-08-01T13:32:15;101015.59;;;29.12;42.61
25232;BME280;13176;51.140;6.290;2022-08-01T13:35:06;101018.69;;;29.16;41.66
25232;BME280;13176;51.140;6.290;2022-08-01T13:37:35;101022.00;;;29.00;41.76
25232;BME280;13176;51.140;6.290;2022-08-01T13:40:05;101023.91;;;29.09;42.81
25232;BME280;13176;51.140;6.290;2022-08-01T13:42:32;101023.56;;;29.02;43.69
25232;BME280;13176;51.140;6.290;2022-08-01T13:44:59;101049.19;;;29.06;45.04
25232;BME280;13176;51.140;6.290;2022-08-01T13:47:25;101021.53;;;28.84;44.96
25232;BME280;13176;51.140;6.290;2022-08-01T13:49:57;101026.91;;;28.84;45.41
25232;BME280;13176;51.140;6.290;2022-08-01T13:52:27;101065.56;;;29.34;45.61
25232;BME280;13176;51.140;6.290;2022-08-01T13:54:53;101048.69;;;29.32;45.34